createdAt,value
2018-07-07T00:00:40.943Z,20.70
2018-07-07T00:01:40.977Z,20.30
2018-07-07T00:02:41.011Z,17.60
2018-07-07T00:03:41.046Z,17.80
2018-07-07T00:04:41.080Z,20.60
2018-07-07T00:05:41.114Z,19.60
2018-07-07T00:06:41.148Z,19.50
2018-07-07T00:07:41.183Z,19.20
2018-07-07T00:08:41.218Z,19.00
2018-07-07T00:09:41.252Z,25.90
2018-07-07T00:10:41.287Z,19.60
2018-07-07T00:11:41.321Z,18.40
2018-07-07T00:12:41.356Z,19.30
2018-07-07T00:13:41.388Z,22.40
2018-07-07T00:14:41.430Z,23.50
2018-07-07T00:15:41.458Z,23.30
2018-07-07T00:16:41.495Z,18.30
2018-07-07T00:17:41.525Z,20.30
2018-07-07T00:18:41.560Z,25.40
2018-07-07T00:19:41.597Z,21.20
2018-07-07T00:20:41.629Z,24.80
2018-07-07T00:21:41.663Z,25.10
2018-07-07T00:22:41.700Z,25.20
2018-07-07T00:23:41.731Z,23.30
2018-07-07T00:24:41.767Z,24.60
2018-07-07T00:25:41.800Z,22.20
2018-07-07T00:26:41.834Z,24.90
2018-07-07T00:27:41.877Z,24.90
2018-07-07T00:28:41.904Z,19.20
2018-07-07T00:29:41.938Z,23.20
2018-07-07T00:30:41.972Z,25.80
2018-07-07T00:31:42.006Z,26.70
2018-07-07T00:32:42.041Z,27.70
2018-07-07T00:33:42.077Z,27.60
2018-07-07T00:34:42.113Z,24.80
2018-07-07T00:35:42.142Z,27.10
2018-07-07T00:36:42.177Z,24.60
2018-07-07T00:37:42.212Z,26.00
2018-07-07T00:38:42.245Z,26.80
2018-07-07T00:39:42.281Z,22.70
2018-07-07T00:40:42.315Z,28.60
2018-07-07T00:41:42.349Z,25.40
2018-07-07T00:42:42.382Z,26.50
2018-07-07T00:43:42.417Z,31.80
2018-07-07T00:44:42.451Z,22.00
2018-07-07T00:45:42.485Z,20.20
2018-07-07T00:46:42.519Z,22.50
2018-07-07T00:47:42.554Z,26.70
2018-07-07T00:48:42.589Z,25.90
2018-07-07T00:49:42.622Z,25.20
2018-07-07T00:50:42.656Z,36.50
2018-07-07T00:51:42.691Z,25.20
2018-07-07T00:52:42.725Z,26.60
2018-07-07T00:53:42.758Z,22.80
2018-07-07T00:54:42.792Z,20.10
2018-07-07T00:55:42.827Z,22.10
2018-07-07T00:56:42.861Z,22.00
2018-07-07T00:57:42.894Z,24.60
2018-07-07T00:58:42.979Z,26.90
2018-07-07T00:59:42.964Z,25.00
2018-07-07T01:00:42.998Z,20.90
2018-07-07T01:01:43.032Z,19.00
2018-07-07T01:02:43.065Z,21.10
2018-07-07T01:03:43.100Z,22.70
2018-07-07T01:04:43.134Z,25.60
2018-07-07T01:05:43.167Z,19.60
2018-07-07T01:06:43.205Z,26.20
2018-07-07T01:07:43.236Z,27.90
2018-07-07T01:08:43.272Z,21.60
2018-07-07T01:09:43.308Z,21.60
2018-07-07T01:10:43.338Z,27.00
2018-07-07T01:11:43.374Z,22.80
2018-07-07T01:12:43.407Z,29.40
2018-07-07T01:13:43.442Z,27.20
2018-07-07T01:14:43.475Z,21.20
2018-07-07T01:15:43.509Z,24.70
2018-07-07T01:16:43.544Z,28.20
2018-07-07T01:17:43.578Z,22.90
2018-07-07T01:18:43.611Z,23.90
2018-07-07T01:19:43.645Z,21.30
2018-07-07T01:20:43.680Z,23.20
2018-07-07T01:21:43.716Z,27.60
2018-07-07T01:22:43.747Z,22.50
2018-07-07T01:23:43.782Z,28.70
2018-07-07T01:24:43.818Z,23.70
2018-07-07T01:25:43.851Z,20.10
2018-07-07T01:26:43.884Z,26.80
2018-07-07T01:27:43.919Z,23.50
2018-07-07T01:28:43.953Z,18.50
2018-07-07T01:29:43.985Z,21.40
2018-07-07T01:30:44.021Z,17.10
2018-07-07T01:31:44.054Z,15.80
2018-07-07T01:32:44.101Z,17.50
2018-07-07T01:33:44.122Z,18.80
2018-07-07T01:34:44.157Z,15.30
2018-07-07T01:35:44.191Z,16.00
2018-07-07T01:36:44.226Z,24.80
2018-07-07T01:37:44.281Z,19.20
2018-07-07T01:38:44.292Z,22.60
2018-07-07T01:39:44.325Z,24.20
2018-07-07T01:40:44.361Z,23.70
2018-07-07T01:41:44.394Z,20.20
2018-07-07T01:42:44.428Z,17.40
2018-07-07T01:43:44.463Z,16.20
2018-07-07T01:44:44.496Z,18.10
2018-07-07T01:45:44.529Z,15.00
2018-07-07T01:46:44.563Z,14.80
2018-07-07T01:47:44.597Z,19.60
2018-07-07T01:48:44.705Z,18.50
2018-07-07T01:49:44.668Z,22.20
2018-07-07T01:50:44.700Z,20.00
2018-07-07T01:51:44.733Z,21.10
2018-07-07T01:52:44.772Z,19.60
2018-07-07T01:53:44.800Z,21.00
2018-07-07T01:54:44.834Z,29.00
2018-07-07T01:55:44.869Z,24.30
2018-07-07T01:56:44.902Z,22.20
2018-07-07T01:57:44.938Z,20.70
2018-07-07T01:58:44.970Z,18.20
2018-07-07T01:59:45.004Z,24.00
2018-07-07T02:00:45.042Z,27.20
2018-07-07T02:01:45.071Z,27.60
2018-07-07T02:02:45.104Z,24.10
2018-07-07T02:03:45.139Z,30.30
2018-07-07T02:04:45.174Z,21.10
2018-07-07T02:05:45.207Z,25.00
2018-07-07T02:06:45.241Z,27.90
2018-07-07T02:07:45.274Z,22.10
2018-07-07T02:08:45.309Z,22.50
2018-07-07T02:09:45.342Z,25.80
2018-07-07T02:10:45.375Z,27.40
2018-07-07T02:11:45.411Z,25.20
2018-07-07T02:12:45.445Z,22.10
2018-07-07T02:13:45.477Z,25.40
2018-07-07T02:14:45.511Z,24.90
2018-07-07T02:15:45.546Z,28.70
2018-07-07T02:16:45.580Z,22.60
2018-07-07T02:17:45.613Z,19.40
2018-07-07T02:18:45.703Z,19.30
2018-07-07T02:19:45.680Z,21.70
2018-07-07T02:20:45.714Z,21.70
2018-07-07T02:21:45.750Z,25.30
2018-07-07T02:22:45.781Z,21.20
2018-07-07T02:23:45.815Z,25.50
2018-07-07T02:24:45.851Z,22.70
2018-07-07T02:25:45.887Z,25.80
2018-07-07T02:26:45.917Z,27.60
2018-07-07T02:32:35.267Z,15.70
2018-07-07T02:33:35.301Z,16.30
2018-07-07T02:34:35.333Z,15.60
2018-07-07T02:35:35.368Z,17.10
2018-07-07T02:36:35.405Z,15.30
2018-07-07T02:37:35.438Z,19.60
2018-07-07T02:38:35.467Z,13.80
2018-07-07T02:39:35.502Z,17.90
2018-07-07T02:40:35.536Z,15.00
2018-07-07T02:41:35.570Z,14.80
2018-07-07T02:42:35.603Z,16.80
2018-07-07T02:43:35.637Z,14.80
2018-07-07T02:44:35.671Z,18.40
2018-07-07T02:45:35.709Z,15.20
2018-07-07T02:46:35.738Z,14.20
2018-07-07T02:47:35.773Z,14.70
2018-07-07T02:48:35.805Z,13.20
2018-07-07T02:49:35.840Z,19.40
2018-07-07T02:50:35.873Z,14.60
2018-07-07T02:51:35.907Z,16.50
2018-07-07T02:52:35.941Z,13.10
2018-07-07T02:53:35.978Z,12.90
2018-07-07T02:54:36.008Z,12.50
2018-07-07T02:55:36.044Z,17.50
2018-07-07T02:56:36.076Z,15.20
2018-07-07T02:57:36.110Z,12.10
2018-07-07T02:58:36.142Z,12.50
2018-07-07T02:59:36.189Z,15.00
2018-07-07T03:00:36.211Z,12.60
2018-07-07T03:01:36.245Z,13.60
2018-07-07T03:02:36.284Z,12.50
2018-07-07T03:03:36.312Z,13.00
2018-07-07T03:04:36.346Z,11.70
2018-07-07T03:05:36.380Z,11.60
2018-07-07T03:06:36.412Z,13.00
2018-07-07T03:07:36.447Z,13.10
2018-07-07T03:08:36.480Z,13.50
2018-07-07T03:09:36.514Z,12.80
2018-07-07T03:10:36.548Z,13.30
2018-07-07T03:11:36.583Z,12.90
2018-07-07T03:12:36.616Z,14.10
2018-07-07T03:13:36.649Z,15.70
2018-07-07T03:14:36.684Z,15.90
2018-07-07T03:16:36.750Z,13.60
2018-07-07T03:18:36.816Z,18.30
2018-07-07T03:19:36.851Z,17.20
2018-07-07T03:20:36.884Z,13.50
2018-07-07T03:21:36.919Z,17.80
2018-07-07T03:22:36.952Z,18.90
2018-07-07T03:23:36.988Z,13.60
2018-07-07T03:24:37.018Z,13.80
2018-07-07T03:25:37.053Z,13.60
2018-07-07T03:26:37.086Z,13.40
2018-07-07T03:27:37.119Z,13.10
2018-07-07T03:28:37.159Z,19.20
2018-07-07T03:29:37.188Z,13.00
2018-07-07T03:30:37.221Z,14.70
2018-07-07T03:31:37.256Z,12.70
2018-07-07T03:32:37.288Z,13.70
2018-07-07T03:33:37.323Z,13.00
2018-07-07T03:34:37.357Z,13.10
2018-07-07T03:35:37.389Z,14.60
2018-07-07T03:36:37.423Z,12.90
2018-07-07T03:37:37.456Z,17.70
2018-07-07T03:38:37.490Z,12.50
2018-07-07T03:39:37.524Z,12.90
2018-07-07T03:40:37.557Z,12.40
2018-07-07T03:41:37.591Z,11.50
2018-07-07T03:42:37.624Z,12.40
2018-07-07T03:43:37.658Z,15.60
2018-07-07T03:44:37.691Z,11.20
2018-07-07T03:45:37.728Z,11.80
2018-07-07T03:46:37.757Z,12.20
2018-07-07T03:47:37.792Z,12.10
2018-07-07T03:48:37.832Z,12.30
2018-07-07T03:49:37.859Z,12.20
2018-07-07T03:50:37.893Z,11.60
2018-07-07T03:51:37.926Z,11.90
2018-07-07T03:52:37.962Z,11.50
2018-07-07T03:53:37.994Z,11.90
2018-07-07T03:54:38.027Z,11.40
2018-07-07T03:55:38.061Z,11.90
2018-07-07T03:56:38.096Z,11.70
2018-07-07T03:57:38.129Z,11.10
2018-07-07T03:58:38.161Z,11.40
2018-07-07T03:59:38.241Z,10.90
2018-07-07T04:00:38.229Z,11.40
2018-07-07T04:01:38.263Z,11.50
2018-07-07T04:02:38.296Z,12.70
2018-07-07T04:03:38.330Z,13.30
2018-07-07T04:04:38.363Z,11.30
2018-07-07T04:05:38.397Z,14.20
2018-07-07T04:06:38.431Z,11.00
2018-07-07T04:07:38.464Z,11.70
2018-07-07T04:08:38.498Z,11.80
2018-07-07T04:09:38.532Z,11.00
2018-07-07T04:10:38.565Z,15.80
2018-07-07T04:11:38.598Z,12.30
2018-07-07T04:12:38.632Z,13.90
2018-07-07T04:13:38.666Z,10.80
2018-07-07T04:14:38.702Z,11.60
2018-07-07T04:15:38.735Z,19.10
2018-07-07T04:16:38.769Z,12.00
2018-07-07T04:17:38.801Z,13.20
2018-07-07T04:18:38.832Z,11.20
2018-07-07T04:19:38.867Z,10.70
2018-07-07T04:20:38.901Z,11.10
2018-07-07T04:21:38.934Z,11.40
2018-07-07T04:22:38.967Z,11.50
2018-07-07T04:23:39.001Z,14.50
2018-07-07T04:24:39.035Z,12.20
2018-07-07T04:25:39.069Z,11.20
2018-07-07T04:26:39.107Z,13.90
2018-07-07T04:27:39.136Z,11.70
2018-07-07T04:28:39.169Z,11.90
2018-07-07T04:29:39.206Z,12.00
2018-07-07T04:30:39.289Z,12.20
2018-07-07T04:31:39.271Z,10.90
2018-07-07T04:32:39.307Z,11.60
2018-07-07T04:33:39.338Z,12.90
2018-07-07T04:34:39.371Z,11.00
2018-07-07T04:35:39.405Z,11.40
2018-07-07T04:37:39.473Z,11.30
2018-07-07T04:38:39.507Z,11.00
2018-07-07T04:39:39.541Z,12.20
2018-07-07T04:40:39.575Z,15.70
2018-07-07T04:41:39.609Z,11.70
2018-07-07T04:42:39.642Z,9.30
2018-07-07T04:43:39.676Z,10.90
2018-07-07T04:44:39.708Z,11.20
2018-07-07T04:45:39.744Z,11.30
2018-07-07T04:46:39.779Z,10.80
2018-07-07T04:47:39.815Z,11.80
2018-07-07T04:48:39.845Z,10.40
2018-07-07T04:49:39.879Z,12.30
2018-07-07T04:50:39.913Z,10.90
2018-07-07T04:51:39.947Z,14.20
2018-07-07T04:52:39.981Z,10.80
2018-07-07T04:53:40.016Z,10.80
2018-07-07T04:54:40.048Z,11.20
2018-07-07T04:55:40.087Z,11.20
2018-07-07T04:56:40.118Z,10.90
2018-07-07T04:57:40.151Z,10.90
2018-07-07T04:58:40.184Z,11.60
2018-07-07T04:59:40.217Z,11.40
2018-07-07T05:00:40.253Z,11.10
2018-07-07T05:01:40.287Z,11.30
2018-07-07T05:02:40.320Z,11.30
2018-07-07T05:03:40.354Z,11.30
2018-07-07T05:04:40.388Z,11.10
2018-07-07T05:05:40.423Z,11.90
2018-07-07T05:06:40.456Z,11.30
2018-07-07T05:07:40.490Z,16.70
2018-07-07T05:08:40.525Z,10.90
2018-07-07T05:09:40.558Z,12.10
2018-07-07T05:10:40.591Z,11.60
2018-07-07T05:11:40.627Z,11.20
2018-07-07T05:12:40.661Z,11.00
2018-07-07T05:13:40.695Z,10.70
2018-07-07T05:14:40.732Z,10.20
2018-07-07T05:16:13.972Z,11.20
2018-07-07T05:16:40.796Z,10.10
2018-07-07T05:17:40.832Z,9.70
2018-07-07T05:18:41.067Z,10.40
2018-07-07T05:19:40.899Z,13.00
2018-07-07T05:20:40.933Z,11.20
2018-07-07T05:21:40.969Z,10.90
2018-07-07T05:22:41.001Z,10.30
2018-07-07T05:23:41.037Z,10.80
2018-07-07T05:24:41.070Z,10.30
2018-07-07T05:25:41.106Z,9.80
2018-07-07T05:26:41.138Z,10.30
2018-07-07T05:28:41.208Z,10.80
2018-07-07T05:29:41.244Z,10.30
2018-07-07T05:30:41.276Z,11.70
2018-07-07T05:31:41.361Z,9.60
2018-07-07T05:32:41.345Z,10.10
2018-07-07T05:33:41.379Z,9.40
2018-07-07T05:34:41.413Z,10.90
2018-07-07T05:35:41.448Z,9.70
2018-07-07T05:36:41.483Z,9.50
2018-07-07T05:37:41.517Z,10.30
2018-07-07T05:38:41.551Z,9.30
2018-07-07T05:39:41.586Z,10.20
2018-07-07T05:40:41.620Z,10.70
2018-07-07T05:41:41.654Z,9.20
2018-07-07T05:42:41.688Z,9.30
2018-07-07T05:43:41.723Z,9.80
2018-07-07T05:44:41.757Z,9.70
2018-07-07T05:45:41.792Z,10.10
2018-07-07T05:46:41.828Z,10.00
2018-07-07T05:47:41.860Z,10.10
2018-07-07T05:48:41.895Z,9.90
2018-07-07T05:49:41.930Z,9.70
2018-07-07T05:50:41.964Z,9.40
2018-07-07T05:51:41.998Z,9.80
2018-07-07T05:52:42.034Z,9.40
2018-07-07T05:53:42.068Z,9.20
2018-07-07T05:54:42.101Z,9.80
2018-07-07T05:55:42.138Z,9.40
2018-07-07T05:56:42.171Z,9.60
2018-07-07T05:57:42.206Z,9.30
2018-07-07T05:58:42.238Z,9.00
2018-07-07T05:59:42.276Z,9.60
2018-07-07T06:00:42.309Z,9.30
2018-07-07T06:01:42.351Z,9.90
2018-07-07T06:02:42.377Z,9.80
2018-07-07T06:03:42.412Z,9.30
2018-07-07T06:04:42.447Z,9.90
2018-07-07T06:05:42.481Z,9.90
2018-07-07T06:06:42.517Z,10.00
2018-07-07T06:07:42.551Z,9.60
2018-07-07T06:08:42.589Z,10.50
2018-07-07T06:09:42.621Z,8.90
2018-07-07T06:10:42.656Z,9.00
2018-07-07T06:11:42.691Z,9.30
2018-07-07T06:12:42.726Z,8.50
2018-07-07T06:13:42.762Z,8.80
2018-07-07T06:14:42.795Z,8.10
2018-07-07T06:15:42.832Z,8.70
2018-07-07T06:16:42.866Z,9.10
2018-07-07T06:17:42.901Z,9.70
2018-07-07T06:18:42.935Z,9.50
2018-07-07T06:19:42.973Z,9.50
2018-07-07T06:20:43.007Z,9.90
2018-07-07T06:21:43.043Z,9.20
2018-07-07T06:22:43.077Z,9.60
2018-07-07T06:23:43.112Z,9.50
2018-07-07T06:24:43.148Z,8.90
2018-07-07T06:25:43.183Z,9.30
2018-07-07T06:26:43.228Z,9.30
2018-07-07T06:27:43.254Z,9.10
2018-07-07T06:28:43.289Z,7.80
2018-07-07T06:29:43.325Z,7.90
2018-07-07T06:30:43.359Z,8.70
2018-07-07T06:31:43.396Z,8.50
2018-07-07T06:32:43.432Z,8.60
2018-07-07T06:33:43.467Z,8.30
2018-07-07T06:34:43.503Z,8.10
2018-07-07T06:35:43.537Z,7.80
2018-07-07T06:36:43.575Z,8.10
2018-07-07T06:37:43.612Z,8.70
2018-07-07T06:38:43.644Z,9.10
2018-07-07T06:39:43.680Z,9.00
2018-07-07T06:40:43.716Z,8.00
2018-07-07T06:41:43.754Z,8.50
2018-07-07T06:42:43.786Z,8.80
2018-07-07T06:43:43.840Z,7.90
2018-07-07T06:44:43.860Z,8.30
2018-07-07T06:45:43.896Z,8.30
2018-07-07T06:46:43.931Z,8.20
2018-07-07T06:47:43.968Z,7.70
2018-07-07T06:48:44.004Z,7.80
2018-07-07T06:49:44.042Z,7.70
2018-07-07T06:50:44.075Z,7.70
2018-07-07T06:51:44.113Z,8.60
2018-07-07T06:52:44.148Z,7.70
2018-07-07T06:53:44.237Z,7.50
2018-07-07T06:54:44.220Z,7.50
2018-07-07T06:55:44.256Z,7.50
2018-07-07T06:56:44.293Z,8.30
2018-07-07T06:57:44.329Z,7.70
2018-07-07T06:58:44.364Z,7.30
2018-07-07T06:59:44.417Z,7.30
2018-07-07T07:00:44.437Z,7.50
2018-07-07T07:01:44.517Z,8.40
2018-07-07T07:02:44.509Z,7.50
2018-07-07T07:03:44.547Z,7.90
2018-07-07T07:04:44.583Z,8.10
2018-07-07T07:05:44.620Z,8.60
2018-07-07T07:06:44.657Z,8.20
2018-07-07T07:07:44.691Z,7.50
2018-07-07T07:08:44.728Z,9.80
2018-07-07T07:09:44.766Z,7.70
2018-07-07T07:10:44.801Z,8.70
2018-07-07T07:11:44.839Z,8.50
2018-07-07T07:12:44.875Z,7.40
2018-07-07T07:13:44.916Z,8.10
2018-07-07T07:14:44.949Z,8.00
2018-07-07T07:15:44.986Z,7.80
2018-07-07T07:16:45.026Z,7.70
2018-07-07T07:17:45.060Z,8.00
2018-07-07T07:18:45.096Z,7.80
2018-07-07T07:19:45.132Z,7.70
2018-07-07T07:20:45.171Z,7.40
2018-07-07T07:21:45.208Z,8.00
2018-07-07T07:22:45.242Z,7.80
2018-07-07T07:23:45.281Z,7.50
2018-07-07T07:24:45.318Z,7.90
2018-07-07T07:25:45.356Z,7.70
2018-07-07T07:26:45.392Z,7.10
2018-07-07T07:27:45.429Z,7.90
2018-07-07T07:28:45.469Z,7.10
2018-07-07T07:29:45.503Z,8.00
2018-07-07T07:30:45.542Z,8.50
2018-07-07T07:31:45.579Z,7.90
2018-07-07T07:32:45.615Z,9.10
2018-07-07T07:33:45.652Z,7.40
2018-07-07T07:34:45.689Z,8.50
2018-07-07T07:35:45.727Z,7.70
2018-07-07T07:36:45.852Z,17.80
2018-07-07T07:37:45.802Z,9.30
2018-07-07T07:38:45.839Z,8.70
2018-07-07T07:39:45.876Z,7.70
2018-07-07T07:40:45.913Z,7.80
2018-07-07T07:41:45.951Z,7.50
2018-07-07T07:42:45.987Z,7.80
2018-07-07T07:43:46.026Z,7.70
2018-07-07T07:44:46.063Z,7.80
2018-07-07T07:45:46.101Z,7.80
2018-07-07T07:46:46.141Z,8.50
2018-07-07T07:47:46.174Z,8.10
2018-07-07T07:48:46.213Z,7.50
2018-07-07T07:49:46.251Z,8.20
2018-07-07T07:50:46.289Z,8.90
2018-07-07T07:51:46.326Z,7.90
2018-07-07T07:52:46.398Z,7.50
2018-07-07T07:53:46.401Z,8.20
2018-07-07T07:54:46.439Z,7.80
2018-07-07T07:55:46.477Z,7.80
2018-07-07T07:56:46.515Z,8.00
2018-07-07T07:57:46.553Z,7.80
2018-07-07T07:58:46.590Z,8.60
2018-07-07T07:59:46.628Z,8.20
2018-07-07T08:00:46.666Z,8.00
2018-07-07T08:01:46.705Z,8.00
2018-07-07T08:02:46.742Z,8.20
2018-07-07T08:03:46.781Z,7.80
2018-07-07T08:04:46.876Z,10.00
2018-07-07T08:05:46.878Z,8.20
2018-07-07T08:06:47.114Z,7.10
2018-07-07T08:07:46.933Z,8.80
2018-07-07T08:08:47.174Z,8.80
2018-07-07T08:09:47.012Z,10.10
2018-07-07T08:10:47.048Z,7.40
2018-07-07T08:11:47.088Z,8.40
2018-07-07T08:12:47.125Z,8.30
2018-07-07T08:13:47.166Z,7.70
2018-07-07T08:14:47.202Z,8.00
2018-07-07T08:15:47.241Z,7.80
2018-07-07T08:16:47.284Z,7.50
2018-07-07T08:17:47.318Z,7.70
2018-07-07T08:18:47.356Z,8.20
2018-07-07T08:19:47.395Z,8.40
2018-07-07T08:20:47.435Z,8.00
2018-07-07T08:21:47.473Z,7.70
2018-07-07T08:22:47.562Z,8.20
2018-07-07T08:23:47.551Z,7.60
2018-07-07T08:24:47.592Z,8.70
2018-07-07T08:25:47.629Z,8.40
2018-07-07T08:26:47.667Z,8.00
2018-07-07T08:27:47.707Z,7.70
2018-07-07T08:28:47.746Z,7.40
2018-07-07T08:29:47.786Z,7.80
2018-07-07T08:30:47.823Z,7.20
2018-07-07T08:31:47.862Z,7.30
2018-07-07T08:32:47.902Z,9.20
2018-07-07T08:33:47.941Z,7.70
2018-07-07T08:34:47.980Z,7.80
2018-07-07T08:35:48.018Z,8.00
2018-07-07T08:36:48.060Z,10.60
2018-07-07T08:37:48.101Z,7.70
2018-07-07T08:38:48.136Z,7.80
2018-07-07T08:39:48.176Z,10.70
2018-07-07T08:40:48.216Z,7.50
2018-07-07T08:41:48.303Z,7.50
2018-07-07T08:42:48.299Z,7.00
2018-07-07T08:43:49.143Z,8.10
2018-07-07T08:44:48.373Z,7.30
2018-07-07T08:45:48.413Z,7.30
2018-07-07T08:46:48.453Z,7.20
2018-07-07T08:47:48.492Z,7.50
2018-07-07T08:48:48.532Z,7.70
2018-07-07T08:49:48.590Z,7.20
2018-07-07T08:50:48.613Z,7.30
2018-07-07T08:51:48.652Z,7.60
2018-07-07T08:52:48.691Z,8.10
2018-07-07T08:53:48.933Z,8.00
2018-07-07T08:55:48.830Z,7.70
2018-07-07T08:56:48.851Z,8.40
2018-07-07T08:57:48.891Z,7.20
2018-07-07T08:58:48.931Z,7.80
2018-07-07T08:59:48.992Z,7.70
2018-07-07T09:00:49.010Z,8.20
2018-07-07T09:01:49.052Z,7.30
2018-07-07T09:02:49.090Z,8.10
2018-07-07T09:03:49.660Z,8.30
2018-07-07T09:04:49.172Z,7.90
2018-07-07T09:05:49.235Z,8.30
2018-07-07T09:06:49.578Z,7.70
2018-07-07T09:07:49.376Z,7.50
2018-07-07T09:08:49.354Z,7.00
2018-07-07T09:09:49.378Z,7.10
2018-07-07T09:10:49.413Z,7.00
2018-07-07T09:11:49.455Z,7.70
2018-07-07T09:12:49.496Z,7.30
2018-07-07T09:13:49.537Z,7.40
2018-07-07T09:14:49.577Z,7.60
2018-07-07T09:15:49.620Z,7.50
2018-07-07T09:16:49.663Z,7.40
2018-07-07T09:17:49.701Z,8.20
2018-07-07T09:18:49.749Z,8.00
2018-07-07T09:19:49.783Z,8.30
2018-07-07T09:20:49.843Z,8.20
2018-07-07T09:21:49.866Z,8.30
2018-07-07T09:22:49.906Z,7.70
2018-07-07T09:23:49.949Z,8.00
2018-07-07T09:24:49.989Z,7.90
2018-07-07T09:25:50.031Z,7.80
2018-07-07T09:26:50.072Z,7.00
2018-07-07T09:27:50.113Z,10.90
2018-07-07T09:28:50.175Z,7.40
2018-07-07T09:29:50.217Z,6.80
2018-07-07T09:31:50.280Z,6.50
2018-07-07T09:32:50.322Z,7.60
2018-07-07T09:34:50.405Z,7.40
2018-07-07T09:35:50.448Z,6.80
2018-07-07T09:36:50.490Z,6.30
2018-07-07T09:37:50.541Z,5.90
2018-07-07T09:38:50.604Z,6.70
2018-07-07T09:39:50.634Z,7.40
2018-07-07T09:40:50.677Z,7.50
2018-07-07T09:41:51.025Z,6.60
2018-07-07T09:42:50.763Z,7.10
2018-07-07T09:43:50.785Z,8.20
2018-07-07T09:44:50.827Z,7.80
2018-07-07T09:45:50.870Z,6.60
2018-07-07T09:46:50.911Z,6.60
2018-07-07T09:47:50.954Z,6.20
2018-07-07T09:48:50.997Z,6.00
2018-07-07T09:49:51.039Z,6.30
2018-07-07T09:50:51.081Z,9.30
2018-07-07T09:51:51.124Z,8.10
2018-07-07T09:52:51.170Z,7.70
2018-07-07T09:53:51.210Z,6.90
2018-07-07T09:54:51.252Z,6.60
2018-07-07T09:55:51.294Z,6.50
2018-07-07T09:56:51.337Z,6.30
2018-07-07T09:57:51.381Z,8.50
2018-07-07T09:58:51.425Z,9.40
2018-07-07T09:59:51.465Z,9.90
2018-07-07T10:00:51.509Z,9.90
2018-07-07T10:01:51.588Z,7.40
2018-07-07T10:02:51.593Z,6.80
2018-07-07T10:03:51.636Z,7.10
2018-07-07T10:04:51.678Z,7.30
2018-07-07T10:05:51.728Z,7.40
2018-07-07T10:06:51.765Z,8.20
2018-07-07T10:07:51.808Z,7.70
2018-07-07T10:08:51.851Z,6.90
2018-07-07T10:09:51.892Z,6.70
2018-07-07T10:10:51.936Z,6.60
2018-07-07T10:11:51.979Z,6.80
2018-07-07T10:13:52.065Z,6.50
2018-07-07T10:14:52.107Z,6.80
2018-07-07T10:15:52.150Z,6.90
2018-07-07T10:16:52.195Z,7.30
2018-07-07T10:17:52.237Z,6.80
2018-07-07T10:18:52.280Z,7.00
2018-07-07T10:19:52.322Z,7.30
2018-07-07T10:20:52.424Z,7.10
2018-07-07T10:21:52.611Z,6.80
2018-07-07T10:22:52.777Z,7.30
2018-07-07T10:23:52.495Z,7.80
2018-07-07T10:24:52.557Z,6.70
2018-07-07T10:25:53.007Z,7.20
2018-07-07T10:26:52.623Z,6.40
2018-07-07T10:27:52.891Z,6.30
2018-07-07T10:28:52.712Z,7.30
2018-07-07T10:29:52.775Z,6.80
2018-07-07T10:30:52.816Z,6.70
2018-07-07T10:31:52.859Z,6.80
2018-07-07T10:32:52.887Z,6.70
2018-07-07T10:33:52.946Z,6.50
2018-07-07T10:34:52.970Z,6.70
2018-07-07T10:35:53.031Z,5.80
2018-07-07T10:36:53.057Z,5.80
2018-07-07T10:37:53.121Z,6.70
2018-07-07T10:38:53.166Z,6.30
2018-07-07T10:39:53.515Z,6.20
2018-07-07T10:40:53.231Z,6.90
2018-07-07T10:41:53.275Z,7.70
2018-07-07T10:42:53.324Z,8.10
2018-07-07T10:43:53.360Z,8.90
2018-07-07T10:44:53.406Z,5.90
2018-07-07T10:45:53.614Z,6.10
2018-07-07T10:46:53.493Z,6.70
2018-07-07T10:47:53.560Z,6.10
2018-07-07T10:48:53.604Z,5.70
2018-07-07T10:49:57.261Z,7.20
2018-07-07T10:50:53.672Z,5.80
2018-07-07T10:51:53.720Z,5.90
2018-07-07T10:52:53.818Z,5.30
2018-07-07T10:53:53.811Z,6.70
2018-07-07T10:54:53.857Z,6.60
2018-07-07T10:56:53.954Z,10.50
2018-07-07T10:58:00.267Z,7.90
2018-07-07T10:58:54.124Z,5.70
2018-07-07T10:59:54.096Z,5.60
2018-07-07T11:00:54.143Z,5.40
2018-07-07T11:01:54.193Z,5.50
2018-07-07T11:02:54.242Z,5.60
2018-07-07T11:03:54.290Z,5.80
2018-07-07T11:04:54.340Z,5.80
2018-07-07T11:05:54.389Z,5.80
2018-07-07T11:06:54.438Z,6.20
2018-07-07T11:07:54.489Z,5.90
2018-07-07T11:08:54.540Z,6.60
2018-07-07T11:09:54.588Z,6.30
2018-07-07T11:10:57.262Z,6.10
2018-07-07T11:11:54.867Z,6.10
2018-07-07T11:12:54.742Z,6.10
2018-07-07T11:13:54.793Z,5.70
2018-07-07T11:14:54.864Z,5.10
2018-07-07T11:15:54.916Z,6.80
2018-07-07T11:16:54.948Z,5.60
2018-07-07T11:17:54.998Z,5.90
2018-07-07T11:18:55.050Z,5.90
2018-07-07T11:19:55.108Z,6.40
2018-07-07T11:20:55.148Z,6.50
2018-07-07T11:21:55.199Z,6.00
2018-07-07T11:22:55.249Z,6.10
2018-07-07T11:23:55.297Z,6.10
2018-07-07T11:24:55.347Z,6.10
2018-07-07T11:25:55.397Z,6.80
2018-07-07T11:26:55.448Z,5.80
2018-07-07T11:27:55.495Z,5.80
2018-07-07T11:28:55.544Z,6.10
2018-07-07T11:29:55.604Z,6.20
2018-07-07T11:30:55.641Z,6.50
2018-07-07T11:31:55.693Z,6.50
2018-07-07T11:32:55.740Z,5.90
2018-07-07T11:33:55.791Z,5.60
2018-07-07T11:34:55.839Z,5.80
2018-07-07T11:35:55.888Z,7.30
2018-07-07T11:36:55.985Z,5.90
2018-07-07T11:37:55.989Z,6.00
2018-07-07T11:38:56.039Z,6.60
2018-07-07T11:39:56.090Z,5.50
2018-07-07T11:40:56.140Z,6.70
2018-07-07T11:41:57.608Z,5.30
2018-07-07T11:42:56.242Z,6.30
2018-07-07T11:43:56.334Z,6.30
2018-07-07T11:44:56.347Z,5.70
2018-07-07T11:45:56.399Z,6.10
2018-07-07T11:46:56.450Z,6.40
2018-07-07T11:47:56.503Z,6.30
2018-07-07T11:48:56.573Z,5.60
2018-07-07T11:49:56.608Z,5.90
2018-07-07T11:50:56.661Z,8.00
2018-07-07T11:51:56.711Z,8.40
2018-07-07T11:52:56.764Z,10.80
2018-07-07T11:53:57.031Z,6.40
2018-07-07T11:54:56.867Z,5.60
2018-07-07T11:55:57.143Z,5.50
2018-07-07T11:56:56.971Z,6.10
2018-07-07T11:57:57.024Z,6.00
2018-07-07T11:58:57.077Z,7.40
2018-07-07T11:59:57.130Z,5.90
2018-07-07T12:00:58.397Z,5.50
2018-07-07T12:01:57.284Z,4.90
2018-07-07T12:02:57.290Z,5.20
2018-07-07T12:03:57.343Z,5.80
2018-07-07T12:04:57.410Z,5.70
2018-07-07T12:05:57.452Z,5.80
2018-07-07T12:06:57.522Z,6.00
2018-07-07T12:08:00.902Z,5.60
2018-07-07T12:08:57.611Z,6.00
2018-07-07T12:09:57.669Z,5.80
2018-07-07T12:11:57.768Z,5.70
2018-07-07T12:12:57.822Z,6.00
2018-07-07T12:13:57.893Z,6.10
2018-07-07T12:14:57.926Z,6.00
2018-07-07T12:15:57.979Z,6.40
2018-07-07T12:17:45.608Z,5.80
2018-07-07T12:18:45.660Z,5.30
2018-07-07T12:19:45.712Z,6.50
2018-07-07T12:20:45.765Z,5.90
2018-07-07T12:21:45.821Z,5.80
2018-07-07T12:22:45.873Z,6.10
2018-07-07T12:23:45.926Z,8.60
2018-07-07T12:24:46.023Z,7.00
2018-07-07T12:27:16.850Z,5.60
2018-07-07T12:28:16.902Z,5.30
2018-07-07T12:29:16.955Z,8.00
2018-07-07T12:30:17.009Z,7.10
2018-07-07T12:31:17.066Z,6.30
2018-07-07T12:32:17.129Z,6.20
2018-07-07T12:33:17.176Z,5.60
2018-07-07T12:34:17.227Z,5.80
2018-07-07T12:35:17.283Z,6.30
2018-07-07T12:36:17.337Z,6.30
2018-07-07T12:37:17.393Z,8.00
2018-07-07T12:38:17.447Z,6.90
2018-07-07T12:39:17.500Z,5.80
2018-07-07T12:40:17.556Z,5.90
2018-07-07T12:41:17.612Z,6.70
2018-07-07T12:42:17.668Z,6.80
2018-07-07T12:43:17.720Z,6.10
2018-07-07T12:44:17.776Z,6.20
2018-07-07T12:45:17.831Z,6.00
2018-07-07T12:46:17.887Z,5.70
2018-07-07T12:47:17.941Z,6.20
2018-07-07T12:48:17.996Z,6.40
2018-07-07T12:49:18.051Z,5.90
2018-07-07T12:50:18.106Z,6.20
2018-07-07T12:51:18.160Z,6.90
2018-07-07T12:52:18.216Z,6.10
2018-07-07T12:53:18.270Z,7.00
2018-07-07T12:54:18.325Z,5.90
2018-07-07T12:55:18.382Z,6.60
2018-07-07T12:56:18.435Z,5.90
2018-07-07T12:57:18.492Z,6.80
2018-07-07T12:58:18.545Z,5.80
2018-07-07T12:59:18.600Z,6.30
2018-07-07T13:00:18.655Z,6.00
2018-07-07T13:01:18.716Z,6.10
2018-07-07T13:02:18.763Z,6.00
2018-07-07T13:03:18.818Z,6.70
2018-07-07T13:04:18.872Z,10.60
2018-07-07T13:05:18.924Z,5.70
2018-07-07T13:06:18.976Z,5.80
2018-07-07T13:07:19.031Z,6.50
2018-07-07T13:08:19.084Z,6.50
2018-07-07T13:09:19.139Z,6.10
2018-07-07T13:10:19.191Z,6.50
2018-07-07T13:11:19.244Z,6.80
2018-07-07T13:12:19.298Z,6.00
2018-07-07T13:13:19.352Z,6.30
2018-07-07T13:14:19.405Z,8.80
2018-07-07T13:15:19.459Z,7.70
2018-07-07T13:16:19.513Z,7.50
2018-07-07T13:17:19.567Z,5.90
2018-07-07T13:18:19.620Z,6.40
2018-07-07T13:19:19.675Z,7.20
2018-07-07T13:20:19.729Z,6.20
2018-07-07T13:21:19.785Z,5.90
2018-07-07T13:22:19.836Z,5.30
2018-07-07T13:23:19.891Z,5.50
2018-07-07T13:24:19.946Z,5.80
2018-07-07T13:25:20.001Z,5.30